Terminal Aerodrome Forecast
Issued by NWS

Home | Current Version | Previous Version | Text Only | Print | Product List | Glossary On
Versions: 1 2 3 4 5 6 7 8 9 10 11 12 13
000
FTUS46 KHNX 191100
TAFBFL
TAF
KBFL 191128Z 1912/2012 VRB03KT P6SM BKN200
     FM192100 31010G15KT P6SM SKC
     FM200200 35005KT P6SM SKC=

USA.gov is the U.S. government's official web portal to all federal, state and local government web resources and services.